Aérodrome :
LOGIN :

S'inscrire | Disclaimer

   EN    FR    IT 

 










Légende :    VFR   VFR Marginal   IFR   IFR Intensif   IFR Très Intensif
Visi : 
Plafond : 
>= 8 km
>= 3000ft
5 à 8 km
1000 à 3000 ft
1500m à 5 km
500 à 1000 ft
800 à 1500m
200 à 500 ft
< 800m
< 200 ft
Symboles :   Orages  Brouillard  Fortes neiges  Fortes précipitations  Vent > 20 kt
SIGMETs :   Divers  Orages  Givrage  Turbulence  Onde Orograph.  Cendres Volcan.






- Altitude de l'aérodrome : 353 ft
- Code IATA : LIN


LIML - Milano Linate

DERNIER METAR :
  • 100350Z 33011KT CAVOK 11/M03 Q1012 NOSIG

METARs EXPIRÉS :
  • 100320Z 33010KT 290V350 CAVOK 11/M03 Q1012 NOSIG
  • 100250Z 33011KT CAVOK 11/M02 Q1012 NOSIG
  • 100220Z 33009KT CAVOK 11/M02 Q1011 NOSIG
  • 100150Z 33009KT 290V350 CAVOK 11/M02 Q1011 NOSIG
  • 100120Z 33008KT CAVOK 09/M00 Q1011 NOSIG

TAF TAF LIML
Valide du 10 à 00h jusqu'au 11 à 00h UTC


092300Z 1000/1024 VRB05KT 2500 BCFG NSC
BECMG 1000/1003 CAVOK 34015KT
BECMG 1013/1015 VRB05KT



MET'MAP, la Météo Aéronautique d'un coup d'oeil ! - Copyright ORBIFLY Décembre 2007 - Disclaimer

ORBIFLY MET'MAP TEAM :

Programmation & Développement : Alexandra Zaïnal
Sur une idée originale de : Baudouin d'Aumeries
Assistance à la programmation : Marc-Olivier Méhu
Soutien technique & logistique : Manuel Goepfert

Contact : metmap@orbifly.com




SOURCES & CREDITS :

   NOAA